createdAt,value
2019-05-11T00:01:59.594Z,98181.80
2019-05-11T00:04:26.366Z,98169.96
2019-05-11T00:06:53.005Z,98156.70
2019-05-11T00:09:19.807Z,98163.89
2019-05-11T00:11:46.556Z,98159.30
2019-05-11T00:14:16.256Z,98154.53
2019-05-11T00:16:43.213Z,98154.53
2019-05-11T00:19:09.923Z,98154.17
2019-05-11T00:21:36.944Z,98158.16
2019-05-11T00:24:03.992Z,98152.23
2019-05-11T00:26:30.760Z,98150.16
2019-05-11T00:28:57.447Z,98135.80
2019-05-11T00:31:24.577Z,98141.98
2019-05-11T00:33:51.374Z,98115.78
2019-05-11T00:36:20.020Z,98120.55
2019-05-11T00:38:48.786Z,98117.99
2019-05-11T00:41:15.648Z,98119.37
2019-05-11T00:43:46.812Z,98101.02
2019-05-11T00:46:13.549Z,98091.84
2019-05-11T00:48:40.256Z,98089.50
2019-05-11T00:51:06.942Z,98064.67
2019-05-11T00:53:33.661Z,98058.59
2019-05-11T00:56:00.419Z,98062.03
2019-05-11T00:58:27.233Z,98049.71
2019-05-11T01:00:54.718Z,98051.26
2019-05-11T01:03:21.522Z,98051.56
2019-05-11T01:05:49.652Z,98046.36
2019-05-11T01:08:16.323Z,98041.73
2019-05-11T01:10:46.233Z,98048.56
2019-05-11T01:13:13.033Z,98036.72
2019-05-11T01:15:39.770Z,98026.37
2019-05-11T01:18:06.578Z,98028.02
2019-05-11T01:20:33.274Z,98020.47
2019-05-11T01:22:59.980Z,98020.03
2019-05-11T01:25:26.684Z,98013.36
2019-05-11T01:27:53.406Z,97993.17
2019-05-11T01:30:20.248Z,97993.55
2019-05-11T01:32:46.948Z,97991.67
2019-05-11T01:35:13.762Z,98000.81
2019-05-11T01:37:41.227Z,98006.24
2019-05-11T01:40:07.958Z,97993.95
2019-05-11T01:42:34.790Z,97998.70
2019-05-11T01:45:01.507Z,97992.72
2019-05-11T01:47:28.190Z,97995.10
2019-05-11T01:49:54.933Z,97997.80
2019-05-11T01:52:21.662Z,97988.02
2019-05-11T01:54:48.420Z,97985.31
2019-05-11T01:57:15.572Z,97980.97
2019-05-11T01:59:42.416Z,97975.84
2019-05-11T02:02:09.169Z,97986.27
2019-05-11T02:04:36.314Z,97972.28
2019-05-11T02:07:03.065Z,97973.47
2019-05-11T02:09:32.396Z,97967.00
2019-05-11T02:11:59.120Z,97967.05
2019-05-11T02:14:25.907Z,97966.88
2019-05-11T02:16:54.513Z,97949.69
2019-05-11T02:19:21.268Z,97968.84
2019-05-11T02:21:48.827Z,97975.06
2019-05-11T02:24:15.565Z,97963.67
2019-05-11T02:26:42.270Z,97963.03
2019-05-11T02:29:09.108Z,97948.90
2019-05-11T02:31:35.834Z,97951.84
2019-05-11T02:34:02.550Z,97944.45
2019-05-11T02:36:29.341Z,97934.34
2019-05-11T02:38:56.065Z,97940.34
2019-05-11T02:41:35.550Z,97942.41
2019-05-11T02:43:51.710Z,97941.09
2019-05-11T02:46:18.426Z,97933.99
2019-05-11T02:48:45.155Z,97927.16
2019-05-11T02:51:11.983Z,97933.24
2019-05-11T02:53:39.216Z,97974.94
2019-05-11T02:56:05.953Z,97926.88
2019-05-11T02:58:32.717Z,97921.85
2019-05-11T03:00:59.449Z,97925.40
2019-05-11T03:03:26.206Z,97921.94
2019-05-11T03:05:52.909Z,97922.27
2019-05-11T03:08:19.946Z,97930.81
2019-05-11T03:10:46.728Z,97914.23
2019-05-11T03:13:13.446Z,97906.72
2019-05-11T03:15:40.426Z,97900.98
2019-05-11T03:18:09.090Z,97906.14
2019-05-11T03:20:36.073Z,97900.28
2019-05-11T03:23:02.889Z,97898.65
2019-05-11T03:25:29.914Z,97893.78
2019-05-11T03:27:56.615Z,97886.02
2019-05-11T03:30:24.768Z,97905.25
2019-05-11T03:32:51.635Z,97896.84
2019-05-11T03:35:18.537Z,97894.09
2019-05-11T03:37:45.254Z,97890.55
2019-05-11T03:40:11.959Z,97894.16
2019-05-11T03:42:38.677Z,97883.56
2019-05-11T03:45:06.213Z,97899.14
2019-05-11T03:47:33.378Z,97893.69
2019-05-11T03:50:00.066Z,97888.81
2019-05-11T03:52:26.770Z,97884.70
2019-05-11T03:54:53.501Z,97885.13
2019-05-11T03:57:20.228Z,97891.09
2019-05-11T03:59:46.943Z,97883.06
2019-05-11T04:02:13.697Z,97888.78
2019-05-11T04:04:40.411Z,97888.30
2019-05-11T04:07:07.474Z,97883.97
2019-05-11T04:09:34.193Z,97896.40
2019-05-11T04:12:03.132Z,97903.02
2019-05-11T04:14:29.856Z,97890.42
2019-05-11T04:16:56.541Z,97873.41
2019-05-11T04:19:23.280Z,97879.73
2019-05-11T04:21:50.019Z,97889.06
2019-05-11T04:24:16.748Z,97885.62
2019-05-11T04:26:45.329Z,97892.19
2019-05-11T04:29:13.818Z,97887.84
2019-05-11T04:31:40.524Z,97894.69
2019-05-11T04:34:07.245Z,97889.42
2019-05-11T04:36:33.952Z,97892.43
2019-05-11T04:39:00.662Z,97905.29
2019-05-11T04:41:27.352Z,97890.50
2019-05-11T04:43:54.059Z,97885.92
2019-05-11T04:46:20.755Z,97878.75
2019-05-11T04:48:50.176Z,97899.92
2019-05-11T04:51:19.153Z,97903.20
2019-05-11T04:53:45.840Z,97894.95
2019-05-11T04:56:15.906Z,97897.77
2019-05-11T04:58:42.647Z,97892.78
2019-05-11T05:01:09.375Z,97893.66
2019-05-11T05:03:40.645Z,97885.51
2019-05-11T05:06:22.076Z,97890.73
2019-05-11T05:08:33.316Z,97892.94
2019-05-11T05:11:01.422Z,97893.56
2019-05-11T05:13:29.407Z,97893.00
2019-05-11T05:15:56.903Z,97888.50
2019-05-11T05:18:23.597Z,97890.37
2019-05-11T05:20:50.305Z,97887.27
2019-05-11T05:23:17.065Z,97883.00
2019-05-11T05:25:43.774Z,97889.00
2019-05-11T05:28:10.501Z,97893.30
2019-05-11T05:30:37.245Z,97882.69
2019-05-11T05:33:04.013Z,97892.38
2019-05-11T05:35:30.926Z,97885.81
2019-05-11T05:37:57.735Z,97885.02
2019-05-11T05:40:24.469Z,97895.91
2019-05-11T05:42:51.661Z,97896.31
2019-05-11T05:45:18.689Z,97901.45
2019-05-11T05:47:45.512Z,97890.30
2019-05-11T05:50:15.469Z,97899.53
2019-05-11T05:52:42.428Z,97897.58
2019-05-11T05:55:09.148Z,97897.02
2019-05-11T05:57:35.887Z,97899.08
2019-05-11T06:00:02.580Z,97901.20
2019-05-11T06:02:29.302Z,97897.30
2019-05-11T06:04:55.998Z,97900.89
2019-05-11T06:07:23.325Z,97899.42
2019-05-11T06:09:50.146Z,97907.23
2019-05-11T06:12:19.910Z,97907.38
2019-05-11T06:14:46.621Z,97887.59
2019-05-11T06:17:13.738Z,97895.39
2019-05-11T06:19:40.576Z,97899.91
2019-05-11T06:22:07.344Z,97909.27
2019-05-11T06:24:34.438Z,97905.74
2019-05-11T06:27:01.139Z,97899.83
2019-05-11T06:29:27.939Z,97901.45
2019-05-11T06:31:55.270Z,97915.08
2019-05-11T06:34:22.105Z,97915.55
2019-05-11T06:36:49.123Z,97912.89
2019-05-11T06:39:15.868Z,97909.86
2019-05-11T06:41:42.660Z,97909.03
2019-05-11T06:44:09.427Z,97906.67
2019-05-11T06:46:36.170Z,97908.39
2019-05-11T06:49:02.919Z,97908.00
2019-05-11T06:51:29.671Z,97271.05
2019-05-11T06:53:56.457Z,97924.34
2019-05-11T06:56:23.188Z,97917.09
2019-05-11T06:58:50.864Z,97927.72
2019-05-11T07:01:17.579Z,97927.65
2019-05-11T07:03:44.302Z,97924.98
2019-05-11T07:06:11.347Z,97924.20
2019-05-11T07:08:38.332Z,97926.86
2019-05-11T07:11:05.158Z,97930.53
2019-05-11T07:13:31.959Z,97941.34
2019-05-11T07:16:00.979Z,97935.70
2019-05-11T07:18:27.961Z,97945.22
2019-05-11T07:20:54.716Z,97941.48
2019-05-11T07:23:21.530Z,97938.83
2019-05-11T07:25:48.712Z,97948.55
2019-05-11T07:28:15.442Z,97943.13
2019-05-11T07:30:42.288Z,97957.11
2019-05-11T07:33:09.010Z,97949.02
2019-05-11T07:35:38.365Z,97958.40
2019-05-11T07:38:04.511Z,97965.05
2019-05-11T07:40:31.253Z,97969.94
2019-05-11T07:42:58.977Z,97964.68
2019-05-11T07:45:28.249Z,97967.63
2019-05-11T07:47:58.791Z,97961.11
2019-05-11T07:50:25.357Z,97971.48
2019-05-11T07:52:52.234Z,97958.78
2019-05-11T07:55:19.489Z,97961.79
2019-05-11T07:57:48.130Z,97975.19
2019-05-11T08:00:15.136Z,97976.52
2019-05-11T08:02:41.877Z,97966.78
2019-05-11T08:05:10.609Z,97974.37
2019-05-11T08:07:38.007Z,97970.78
2019-05-11T08:10:05.126Z,97976.12
2019-05-11T08:12:39.226Z,97989.87
2019-05-11T08:15:11.878Z,97984.65
2019-05-11T08:17:34.831Z,97989.51
2019-05-11T08:20:44.045Z,97979.62
2019-05-11T08:24:25.086Z,97979.08
2019-05-11T08:26:45.171Z,98006.29
2019-05-11T08:29:27.978Z,98042.61
2019-05-11T08:31:58.519Z,98006.07
2019-05-11T08:34:30.711Z,98029.31
2019-05-11T08:37:42.595Z,98052.59
2019-05-11T08:40:18.752Z,98053.83
2019-05-11T08:42:58.405Z,98079.73
2019-05-11T08:45:45.086Z,98067.28
2019-05-11T08:48:12.426Z,98047.82
2019-05-11T08:50:39.354Z,98038.00
2019-05-11T08:53:08.434Z,98040.02
2019-05-11T08:55:34.934Z,98041.41
2019-05-11T08:58:01.966Z,98042.28
2019-05-11T09:00:28.871Z,98056.40
2019-05-11T09:02:58.025Z,98069.34
2019-05-11T09:05:29.186Z,98058.50
2019-05-11T09:07:57.758Z,98069.90
2019-05-11T09:10:24.716Z,98052.23
2019-05-11T09:12:51.463Z,98080.15
2019-05-11T09:15:32.541Z,98055.01
2019-05-11T09:17:48.797Z,98052.58
2019-05-11T09:20:17.987Z,98047.25
2019-05-11T09:22:44.623Z,98057.06
2019-05-11T09:25:11.793Z,98066.13
2019-05-11T09:27:38.852Z,98058.28
2019-05-11T09:30:08.107Z,98075.95
2019-05-11T09:32:58.135Z,98075.06
2019-05-11T09:35:25.322Z,98109.02
2019-05-11T09:37:53.343Z,98115.83
2019-05-11T09:40:22.204Z,98109.88
2019-05-11T09:42:50.123Z,98136.05
2019-05-11T09:45:19.063Z,98153.23
2019-05-11T09:47:47.742Z,98149.53
2019-05-11T09:50:14.757Z,98126.81
2019-05-11T09:52:41.556Z,98106.65
2019-05-11T09:55:08.917Z,98101.58
2019-05-11T09:57:38.198Z,98105.59
2019-05-11T10:00:04.989Z,98096.05
2019-05-11T10:02:34.550Z,98102.28
2019-05-11T10:05:01.332Z,98108.06
2019-05-11T10:07:28.907Z,98107.78
2019-05-11T10:09:58.477Z,98117.16
2019-05-11T10:12:25.421Z,98102.27
2019-05-11T10:14:54.910Z,98108.29
2019-05-11T10:17:21.654Z,98114.98
2019-05-11T10:19:49.667Z,98120.98
2019-05-11T10:22:18.694Z,98119.18
2019-05-11T10:24:47.692Z,98129.34
2019-05-11T10:27:14.588Z,98134.08
2019-05-11T10:29:41.312Z,98120.06
2019-05-11T10:32:09.934Z,98117.27
2019-05-11T10:34:38.729Z,98113.34
2019-05-11T10:37:05.342Z,98115.60
2019-05-11T10:39:32.189Z,98120.47
2019-05-11T10:41:58.943Z,98109.02
2019-05-11T10:44:27.922Z,98133.78
2019-05-11T10:46:54.269Z,98132.77
2019-05-11T10:49:20.994Z,98135.83
2019-05-11T10:51:48.634Z,98124.78
2019-05-11T10:54:18.748Z,98129.86
2019-05-11T10:56:48.024Z,98121.88
2019-05-11T10:59:15.639Z,98126.80
2019-05-11T11:01:42.422Z,98128.20
2019-05-11T11:04:09.137Z,98119.92
2019-05-11T11:06:35.842Z,98122.05
2019-05-11T11:09:05.214Z,98161.80
2019-05-11T11:11:32.265Z,98138.70
2019-05-11T11:13:59.485Z,98137.22
2019-05-11T11:16:37.029Z,98142.05
2019-05-11T11:18:55.030Z,98151.69
2019-05-11T11:21:22.980Z,98176.05
2019-05-11T11:23:49.977Z,98185.93
2019-05-11T11:26:18.502Z,98194.14
2019-05-11T11:28:47.532Z,98199.50
2019-05-11T11:31:13.900Z,98211.02
2019-05-11T11:33:40.606Z,98218.73
2019-05-11T11:36:08.587Z,98216.80
2019-05-11T11:38:38.322Z,98225.56
2019-05-11T11:41:05.023Z,98231.84
2019-05-11T11:43:35.138Z,98235.06
2019-05-11T11:46:04.426Z,98230.05
2019-05-11T11:48:31.137Z,98246.81
2019-05-11T11:50:58.525Z,98256.20
2019-05-11T11:53:27.903Z,98251.59
2019-05-11T11:55:55.018Z,98249.56
2019-05-11T11:58:23.874Z,98264.79
2019-05-11T12:00:50.433Z,98267.75
2019-05-11T12:03:19.752Z,98274.62
2019-05-11T12:05:47.730Z,98280.77
2019-05-11T12:08:18.859Z,98277.31
2019-05-11T12:10:52.984Z,98290.14
2019-05-11T12:13:20.444Z,98288.31
2019-05-11T12:15:48.243Z,98285.81
2019-05-11T12:18:15.217Z,98294.52
2019-05-11T12:20:44.792Z,98302.77
2019-05-11T12:23:12.064Z,98298.73
2019-05-11T12:25:40.598Z,98299.81
2019-05-11T12:28:08.086Z,98296.02
2019-05-11T12:30:35.085Z,98317.37
2019-05-11T12:33:01.925Z,98311.91
2019-05-11T12:35:28.668Z,98317.86
2019-05-11T12:37:58.879Z,98334.56
2019-05-11T12:40:28.086Z,98331.14
2019-05-11T12:43:48.645Z,98337.99
2019-05-11T12:46:15.088Z,98345.34
2019-05-11T12:48:41.804Z,98363.66
2019-05-11T12:51:08.850Z,98365.79
2019-05-11T12:53:38.612Z,98373.08
2019-05-11T12:56:07.980Z,98380.42
2019-05-11T12:58:35.676Z,98389.43
2019-05-11T13:01:02.323Z,98390.56
2019-05-11T13:03:29.065Z,98399.02
2019-05-11T13:05:55.775Z,98406.96
2019-05-11T13:08:22.640Z,98413.09
2019-05-11T13:10:49.863Z,98415.52
2019-05-11T13:13:18.185Z,98437.95
2019-05-11T13:15:45.161Z,98443.48
2019-05-11T13:18:11.857Z,98452.91
2019-05-11T13:20:40.567Z,98453.59
2019-05-11T13:23:08.008Z,98454.42
2019-05-11T13:25:34.899Z,98459.19
2019-05-11T13:28:01.613Z,98468.39
2019-05-11T13:30:29.309Z,98462.17
2019-05-11T13:32:57.968Z,98471.09
2019-05-11T13:35:24.719Z,98478.91
2019-05-11T13:37:51.471Z,98485.27
2019-05-11T13:40:18.725Z,98486.61
2019-05-11T13:42:45.749Z,98495.41
2019-05-11T13:45:12.463Z,98498.80
2019-05-11T13:47:51.261Z,98490.73
2019-05-11T13:50:07.906Z,98499.39
2019-05-11T13:52:35.926Z,98503.52
2019-05-11T13:55:02.753Z,98503.28
2019-05-11T13:57:31.993Z,98511.72
2019-05-11T13:59:58.706Z,98512.05
2019-05-11T14:02:25.533Z,98517.05
2019-05-11T14:04:52.272Z,98522.42
2019-05-11T14:07:21.769Z,98531.41
2019-05-11T14:09:48.629Z,98541.39
2019-05-11T14:12:15.302Z,98545.91
2019-05-11T14:14:42.021Z,98557.66
2019-05-11T14:17:08.739Z,98561.44
2019-05-11T14:19:38.277Z,98567.28
2019-05-11T14:22:04.142Z,98576.48
2019-05-11T14:24:30.958Z,98583.11
2019-05-11T14:26:58.189Z,98596.45
2019-05-11T14:29:28.410Z,98599.53
2019-05-11T14:31:55.187Z,98610.27
2019-05-11T14:34:22.107Z,98617.61
2019-05-11T14:36:48.903Z,98623.73
2019-05-11T14:39:15.605Z,98628.03
2019-05-11T14:41:42.282Z,98634.08
2019-05-11T14:44:09.232Z,98634.95
2019-05-11T14:46:38.247Z,98647.86
2019-05-11T14:49:04.646Z,98647.47
2019-05-11T14:51:31.406Z,98652.25
2019-05-11T14:53:59.495Z,98652.95
2019-05-11T14:56:27.904Z,98661.57
2019-05-11T14:58:55.220Z,98672.64
2019-05-11T15:01:21.966Z,98687.19
2019-05-11T15:03:49.015Z,98690.89
2019-05-11T15:06:15.810Z,98702.70
2019-05-11T15:08:42.939Z,98700.53
2019-05-11T15:11:09.620Z,98703.72
2019-05-11T15:13:38.258Z,98717.46
2019-05-11T15:16:05.024Z,98712.78
2019-05-11T15:18:38.454Z,98724.19
2019-05-11T15:21:00.335Z,98725.59
2019-05-11T15:23:28.428Z,98732.68
2019-05-11T15:25:55.434Z,98731.27
2019-05-11T15:28:22.119Z,98739.46
2019-05-11T15:30:48.920Z,98746.88
2019-05-11T15:33:18.112Z,98751.37
2019-05-11T15:35:44.528Z,98756.13
2019-05-11T15:38:11.261Z,98754.22
2019-05-11T15:40:38.433Z,98758.50
2019-05-11T15:43:05.393Z,98766.25
2019-05-11T15:45:32.096Z,98761.69
2019-05-11T15:48:02.029Z,98764.88
2019-05-11T15:50:29.253Z,98769.13
2019-05-11T15:52:58.128Z,98775.77
2019-05-11T15:55:27.634Z,98780.29
2019-05-11T15:57:54.325Z,98786.35
2019-05-11T16:00:21.048Z,98786.61
2019-05-11T16:02:48.919Z,98795.83
2019-05-11T16:05:18.238Z,98799.57
2019-05-11T16:07:45.271Z,98809.12
2019-05-11T16:10:12.342Z,98808.88
2019-05-11T16:12:39.408Z,98816.30
2019-05-11T16:15:08.578Z,98816.55
2019-05-11T16:17:35.199Z,98831.84
2019-05-11T16:20:02.169Z,98816.46
2019-05-11T16:22:29.214Z,98832.05
2019-05-11T16:24:57.945Z,98830.97
2019-05-11T16:27:24.525Z,98833.08
2019-05-11T16:29:51.228Z,98830.66
2019-05-11T16:32:18.168Z,98842.05
2019-05-11T16:34:44.877Z,98844.19
2019-05-11T16:37:14.198Z,98858.70
2019-05-11T16:39:40.961Z,98853.61
2019-05-11T16:42:08.510Z,98860.75
2019-05-11T16:44:35.293Z,98878.74
2019-05-11T16:47:02.030Z,98900.14
2019-05-11T16:49:32.263Z,98895.33
2019-05-11T16:51:59.201Z,98901.70
2019-05-11T16:54:28.060Z,98918.75
2019-05-11T16:56:54.867Z,98931.47
2019-05-11T16:59:21.571Z,98929.80
2019-05-11T17:01:48.374Z,98936.47
2019-05-11T17:04:15.195Z,98944.64
2019-05-11T17:06:41.917Z,98956.04
2019-05-11T17:09:09.086Z,98959.21
2019-05-11T17:11:38.330Z,98962.91
2019-05-11T17:14:04.581Z,98979.08
2019-05-11T17:16:31.559Z,98985.17
2019-05-11T17:18:58.512Z,98986.50
2019-05-11T17:21:25.557Z,98998.14
2019-05-11T17:23:52.261Z,99002.95
2019-05-11T17:26:19.412Z,99020.97
2019-05-11T17:28:46.094Z,99027.86
2019-05-11T17:31:12.803Z,99041.34
2019-05-11T17:33:39.482Z,99040.82
2019-05-11T17:36:08.512Z,99050.86
2019-05-11T17:38:34.980Z,99061.17
2019-05-11T17:41:01.691Z,99066.43
2019-05-11T17:43:28.745Z,99067.78
2019-05-11T17:45:55.559Z,99066.19
2019-05-11T17:48:22.251Z,99075.45
2019-05-11T17:50:50.207Z,99078.63
2019-05-11T17:53:18.342Z,99083.39
2019-05-11T17:55:45.123Z,99091.30
2019-05-11T17:58:11.829Z,99101.66
2019-05-11T18:00:39.233Z,99097.97
2019-05-11T18:03:08.340Z,99101.94
2019-05-11T18:05:37.794Z,99103.55
2019-05-11T18:08:04.086Z,99107.23
2019-05-11T18:10:30.814Z,99114.14
2019-05-11T18:12:57.858Z,99117.31
2019-05-11T18:15:24.748Z,99124.17
2019-05-11T18:17:51.433Z,99120.16
2019-05-11T18:20:21.531Z,99128.11
2019-05-11T18:22:48.901Z,99133.17
2019-05-11T18:25:18.365Z,99135.27
2019-05-11T18:27:48.485Z,99136.87
2019-05-11T18:30:15.604Z,99144.58
2019-05-11T18:32:42.447Z,99143.48
2019-05-11T18:35:09.160Z,99153.02
2019-05-11T18:37:35.858Z,99159.39
2019-05-11T18:40:02.744Z,99165.21
2019-05-11T18:42:29.466Z,99185.05
2019-05-11T18:44:58.081Z,99186.09
2019-05-11T18:47:24.826Z,99186.66
2019-05-11T18:49:51.899Z,99189.55
2019-05-11T18:52:18.868Z,99200.41
2019-05-11T18:54:47.877Z,99208.11
2019-05-11T18:57:14.336Z,99223.22
2019-05-11T18:59:41.046Z,99218.48
2019-05-11T19:02:08.405Z,99224.06
2019-05-11T19:04:35.515Z,99225.64
2019-05-11T19:07:14.264Z,99232.55
2019-05-11T19:09:30.862Z,99245.49
2019-05-11T19:11:57.852Z,99260.05
2019-05-11T19:14:24.679Z,99257.41
2019-05-11T19:16:52.045Z,99260.86
2019-05-11T19:19:18.759Z,99283.89
2019-05-11T19:21:48.186Z,99283.61
2019-05-11T19:24:18.956Z,99293.91
2019-05-11T19:26:48.102Z,99294.97
2019-05-11T19:29:14.314Z,99302.63
2019-05-11T19:31:41.031Z,99307.13
2019-05-11T19:34:07.734Z,99315.29
2019-05-11T19:36:34.930Z,99313.13
2019-05-11T19:39:02.202Z,99323.22
2019-05-11T19:41:29.003Z,99323.73
2019-05-11T19:43:57.720Z,99333.77
2019-05-11T19:46:25.320Z,99334.54
2019-05-11T19:48:53.496Z,99341.94
2019-05-11T19:51:20.255Z,99346.14
2019-05-11T19:53:48.412Z,99355.40
2019-05-11T19:56:15.354Z,99352.98
2019-05-11T19:58:42.061Z,99355.66
2019-05-11T20:01:09.164Z,99359.62
2019-05-11T20:03:37.869Z,99363.61
2019-05-11T20:06:04.464Z,99369.95
2019-05-11T20:08:31.180Z,99376.80
2019-05-11T20:10:58.188Z,99372.53
2019-05-11T20:13:25.176Z,99376.20
2019-05-11T20:15:51.862Z,99376.50
2019-05-11T20:18:18.597Z,99385.27
2019-05-11T20:20:47.912Z,99385.82
2019-05-11T20:23:17.939Z,99387.37
2019-05-11T20:25:44.653Z,99392.93
2019-05-11T20:28:11.331Z,99395.88
2019-05-11T20:30:38.048Z,99393.29
2019-05-11T20:33:04.795Z,99395.70
2019-05-11T20:35:32.580Z,99392.25
2019-05-11T20:38:01.424Z,99392.77
2019-05-11T20:40:28.567Z,99396.45
2019-05-11T20:42:55.439Z,99402.56
2019-05-11T20:45:22.629Z,99404.68
2019-05-11T20:47:49.327Z,99401.78
2019-05-11T20:50:18.151Z,99407.28
2019-05-11T20:52:44.784Z,99405.15
2019-05-11T20:55:11.512Z,99409.12
2019-05-11T20:57:39.690Z,99418.73
2019-05-11T21:00:08.102Z,99424.79
2019-05-11T21:02:35.098Z,99424.75
2019-05-11T21:05:03.764Z,99425.48
2019-05-11T21:07:30.518Z,99441.83
2019-05-11T21:09:57.851Z,99435.17
2019-05-11T21:12:24.694Z,99433.33
2019-05-11T21:14:51.391Z,99439.06
2019-05-11T21:17:18.330Z,99442.68
2019-05-11T21:19:45.036Z,99447.20
2019-05-11T21:22:12.029Z,99444.83
2019-05-11T21:24:38.827Z,99455.83
2019-05-11T21:27:05.541Z,99456.15
2019-05-11T21:29:32.524Z,99451.46
2019-05-11T21:31:59.396Z,99455.25
2019-05-11T21:34:27.997Z,99457.21
2019-05-11T21:36:54.710Z,99462.38
2019-05-11T21:39:21.411Z,99461.11
2019-05-11T21:41:48.147Z,99461.84
2019-05-11T21:44:14.847Z,99469.30
2019-05-11T21:46:41.545Z,99476.74
2019-05-11T21:49:09.209Z,99464.48
2019-05-11T21:51:38.099Z,99473.27
2019-05-11T21:54:04.937Z,99476.59
2019-05-11T21:56:31.621Z,99480.09
2019-05-11T21:58:58.718Z,99484.64
2019-05-11T22:01:27.877Z,99485.32
2019-05-11T22:03:55.474Z,99486.12
2019-05-11T22:06:22.192Z,99499.05
2019-05-11T22:08:50.877Z,99496.92
2019-05-11T22:11:17.941Z,99501.11
2019-05-11T22:13:48.482Z,99501.55
2019-05-11T22:16:15.514Z,99505.89
2019-05-11T22:18:42.330Z,99510.69
2019-05-11T22:21:09.046Z,99526.27
2019-05-11T22:23:38.562Z,99516.27
2019-05-11T22:26:07.620Z,99522.95
2019-05-11T22:28:35.164Z,99519.30
2019-05-11T22:31:01.865Z,99532.38
2019-05-11T22:33:28.584Z,99549.27
2019-05-11T22:35:55.263Z,99553.59
2019-05-11T22:38:21.964Z,99549.90
2019-05-11T22:40:48.811Z,99562.78
2019-05-11T22:43:18.447Z,99551.28
2019-05-11T22:45:45.154Z,99545.41
2019-05-11T22:48:11.839Z,99545.16
2019-05-11T22:50:38.733Z,99548.14
2019-05-11T22:53:05.539Z,99556.35
2019-05-11T22:55:32.759Z,99560.70
2019-05-11T22:57:59.514Z,99564.25
2019-05-11T23:00:40.456Z,99567.98
2019-05-11T23:03:07.657Z,99576.81
2019-05-11T23:05:35.796Z,99571.87
2019-05-11T23:08:02.551Z,99577.52
2019-05-11T23:10:29.242Z,99579.13
2019-05-11T23:12:58.653Z,99581.48
2019-05-11T23:15:25.346Z,99595.22
2019-05-11T23:17:52.088Z,99589.78
2019-05-11T23:20:18.789Z,99588.86
2019-05-11T23:22:56.461Z,99591.16
2019-05-11T23:25:15.241Z,99596.08
2019-05-11T23:27:41.991Z,99592.39
2019-05-11T23:30:09.045Z,99586.55
2019-05-11T23:32:35.686Z,99591.81
2019-05-11T23:35:02.713Z,99587.74
2019-05-11T23:37:29.449Z,99600.84
2019-05-11T23:39:58.411Z,99601.11
2019-05-11T23:42:28.884Z,99611.66
2019-05-11T23:44:58.566Z,99607.84
2019-05-11T23:47:28.869Z,99613.66
2019-05-11T23:49:55.669Z,99614.58
2019-05-11T23:52:22.664Z,99611.77
2019-05-11T23:54:49.833Z,99607.70
2019-05-11T23:57:18.632Z,99612.34
2019-05-11T23:59:47.770Z,99617.31
